sensor_id;sensor_type;location;lat;lon;timestamp;temperature;humidity
31542;DHT22;18152;49.986;8.646;2023-09-08T00:01:55;16.20;99.90
31542;DHT22;18152;49.986;8.646;2023-09-08T00:04:21;16.10;99.90
31542;DHT22;18152;49.986;8.646;2023-09-08T00:06:47;16.10;99.90
31542;DHT22;18152;49.986;8.646;2023-09-08T00:09:12;16.00;99.90
31542;DHT22;18152;49.986;8.646;2023-09-08T00:11:38;16.10;99.90
31542;DHT22;18152;49.986;8.646;2023-09-08T00:14:04;16.00;99.90
31542;DHT22;18152;49.986;8.646;2023-09-08T00:16:29;16.00;99.90
31542;DHT22;18152;49.986;8.646;2023-09-08T00:18:56;15.90;99.90
31542;DHT22;18152;49.986;8.646;2023-09-08T00:21:23;15.90;99.90
31542;DHT22;18152;49.986;8.646;2023-09-08T00:23:49;16.00;99.90
31542;DHT22;18152;49.986;8.646;2023-09-08T00:26:14;16.00;99.90
31542;DHT22;18152;49.986;8.646;2023-09-08T00:28:40;15.90;99.90
31542;DHT22;18152;49.986;8.646;2023-09-08T00:31:05;15.90;99.90
31542;DHT22;18152;49.986;8.646;2023-09-08T00:33:31;15.80;99.90
31542;DHT22;18152;49.986;8.646;2023-09-08T00:35:57;15.80;99.90
31542;DHT22;18152;49.986;8.646;2023-09-08T00:38:23;15.80;99.90
31542;DHT22;18152;49.986;8.646;2023-09-08T00:40:48;15.80;99.90
31542;DHT22;18152;49.986;8.646;2023-09-08T00:43:14;15.80;99.90
31542;DHT22;18152;49.986;8.646;2023-09-08T00:45:42;15.70;99.90
31542;DHT22;18152;49.986;8.646;2023-09-08T00:48:08;15.70;99.90
31542;DHT22;18152;49.986;8.646;2023-09-08T00:50:38;15.70;99.90
31542;DHT22;18152;49.986;8.646;2023-09-08T00:53:05;15.70;99.90
31542;DHT22;18152;49.986;8.646;2023-09-08T00:55:31;15.70;99.90
31542;DHT22;18152;49.986;8.646;2023-09-08T00:58:00;15.70;99.90
31542;DHT22;18152;49.986;8.646;2023-09-08T01:00:26;15.60;99.90
31542;DHT22;18152;49.986;8.646;2023-09-08T01:02:52;15.60;99.90
31542;DHT22;18152;49.986;8.646;2023-09-08T01:05:18;15.60;99.90
31542;DHT22;18152;49.986;8.646;2023-09-08T01:07:44;15.60;99.90
31542;DHT22;18152;49.986;8.646;2023-09-08T01:10:11;15.60;99.90
31542;DHT22;18152;49.986;8.646;2023-09-08T01:12:37;15.50;99.90
31542;DHT22;18152;49.986;8.646;2023-09-08T01:15:03;15.50;99.90
31542;DHT22;18152;49.986;8.646;2023-09-08T01:17:30;15.50;99.90
31542;DHT22;18152;49.986;8.646;2023-09-08T01:19:56;15.50;99.90
31542;DHT22;18152;49.986;8.646;2023-09-08T01:25:21;15.50;99.90
31542;DHT22;18152;49.986;8.646;2023-09-08T01:27:52;15.50;99.90
31542;DHT22;18152;49.986;8.646;2023-09-08T01:30:18;15.40;99.90
31542;DHT22;18152;49.986;8.646;2023-09-08T01:32:44;15.40;99.90
31542;DHT22;18152;49.986;8.646;2023-09-08T01:35:11;15.40;99.90
31542;DHT22;18152;49.986;8.646;2023-09-08T01:37:40;15.40;99.90
31542;DHT22;18152;49.986;8.646;2023-09-08T01:40:07;15.30;99.90
31542;DHT22;18152;49.986;8.646;2023-09-08T01:42:34;15.40;99.90
31542;DHT22;18152;49.986;8.646;2023-09-08T01:44:59;15.30;99.90
31542;DHT22;18152;49.986;8.646;2023-09-08T01:47:27;15.30;99.90
31542;DHT22;18152;49.986;8.646;2023-09-08T01:49:53;15.20;99.90
31542;DHT22;18152;49.986;8.646;2023-09-08T01:52:18;15.20;99.90
31542;DHT22;18152;49.986;8.646;2023-09-08T01:54:44;15.30;99.90
31542;DHT22;18152;49.986;8.646;2023-09-08T01:57:09;15.20;99.90
31542;DHT22;18152;49.986;8.646;2023-09-08T01:59:35;15.20;99.90
31542;DHT22;18152;49.986;8.646;2023-09-08T02:02:02;15.20;99.90
31542;DHT22;18152;49.986;8.646;2023-09-08T02:04:28;15.20;99.90
31542;DHT22;18152;49.986;8.646;2023-09-08T02:06:54;15.10;99.90
31542;DHT22;18152;49.986;8.646;2023-09-08T02:09:20;15.10;99.90
31542;DHT22;18152;49.986;8.646;2023-09-08T02:11:45;15.20;99.90
31542;DHT22;18152;49.986;8.646;2023-09-08T02:14:11;15.20;99.90
31542;DHT22;18152;49.986;8.646;2023-09-08T02:16:37;15.10;99.90
31542;DHT22;18152;49.986;8.646;2023-09-08T02:19:02;15.10;99.90
31542;DHT22;18152;49.986;8.646;2023-09-08T02:21:28;15.20;99.90
31542;DHT22;18152;49.986;8.646;2023-09-08T02:23:53;15.30;99.90
31542;DHT22;18152;49.986;8.646;2023-09-08T02:26:19;15.30;99.90
31542;DHT22;18152;49.986;8.646;2023-09-08T02:28:44;15.20;99.90
31542;DHT22;18152;49.986;8.646;2023-09-08T02:31:10;15.20;99.90
31542;DHT22;18152;49.986;8.646;2023-09-08T02:33:35;15.20;99.90
31542;DHT22;18152;49.986;8.646;2023-09-08T02:36:05;15.20;99.90
31542;DHT22;18152;49.986;8.646;2023-09-08T02:38:32;15.10;99.90
31542;DHT22;18152;49.986;8.646;2023-09-08T02:40:57;15.10;99.90
31542;DHT22;18152;49.986;8.646;2023-09-08T02:43:23;15.10;99.90
31542;DHT22;18152;49.986;8.646;2023-09-08T02:45:49;15.00;99.90
31542;DHT22;18152;49.986;8.646;2023-09-08T02:48:15;15.00;99.90
31542;DHT22;18152;49.986;8.646;2023-09-08T02:50:41;14.90;99.90
31542;DHT22;18152;49.986;8.646;2023-09-08T02:53:07;15.00;99.90
31542;DHT22;18152;49.986;8.646;2023-09-08T02:55:33;14.90;99.90
31542;DHT22;18152;49.986;8.646;2023-09-08T02:57:58;14.90;99.90
31542;DHT22;18152;49.986;8.646;2023-09-08T03:00:24;14.90;99.90
31542;DHT22;18152;49.986;8.646;2023-09-08T03:02:50;14.90;99.90
31542;DHT22;18152;49.986;8.646;2023-09-08T03:05:15;14.80;99.90
31542;DHT22;18152;49.986;8.646;2023-09-08T03:07:41;14.80;99.90
31542;DHT22;18152;49.986;8.646;2023-09-08T03:10:07;14.80;99.90
31542;DHT22;18152;49.986;8.646;2023-09-08T03:12:32;14.80;99.90
31542;DHT22;18152;49.986;8.646;2023-09-08T03:14:58;14.80;99.90
31542;DHT22;18152;49.986;8.646;2023-09-08T03:17:23;14.80;99.90
31542;DHT22;18152;49.986;8.646;2023-09-08T03:19:49;14.70;99.90
31542;DHT22;18152;49.986;8.646;2023-09-08T03:22:14;14.70;99.90
31542;DHT22;18152;49.986;8.646;2023-09-08T03:24:40;14.70;99.90
31542;DHT22;18152;49.986;8.646;2023-09-08T03:27:05;14.70;99.90
31542;DHT22;18152;49.986;8.646;2023-09-08T03:29:31;14.60;99.90
31542;DHT22;18152;49.986;8.646;2023-09-08T03:31:57;14.70;99.90
31542;DHT22;18152;49.986;8.646;2023-09-08T03:34:22;14.60;99.90
31542;DHT22;18152;49.986;8.646;2023-09-08T03:36:49;14.60;99.90
31542;DHT22;18152;49.986;8.646;2023-09-08T03:39:14;14.60;99.90
31542;DHT22;18152;49.986;8.646;2023-09-08T03:41:40;14.60;99.90
31542;DHT22;18152;49.986;8.646;2023-09-08T03:44:06;14.60;99.90
31542;DHT22;18152;49.986;8.646;2023-09-08T03:46:31;14.60;99.90
31542;DHT22;18152;49.986;8.646;2023-09-08T03:48:57;14.60;99.90
31542;DHT22;18152;49.986;8.646;2023-09-08T03:51:26;14.60;99.90
31542;DHT22;18152;49.986;8.646;2023-09-08T03:53:53;14.60;99.90
31542;DHT22;18152;49.986;8.646;2023-09-08T03:56:18;14.60;99.90
31542;DHT22;18152;49.986;8.646;2023-09-08T03:58:45;14.60;99.90
31542;DHT22;18152;49.986;8.646;2023-09-08T04:01:11;14.60;99.90
31542;DHT22;18152;49.986;8.646;2023-09-08T04:03:37;14.70;99.90
31542;DHT22;18152;49.986;8.646;2023-09-08T04:06:02;14.60;99.90
31542;DHT22;18152;49.986;8.646;2023-09-08T04:08:28;14.70;99.90
31542;DHT22;18152;49.986;8.646;2023-09-08T04:10:53;14.70;99.90
31542;DHT22;18152;49.986;8.646;2023-09-08T04:13:19;14.60;99.90
31542;DHT22;18152;49.986;8.646;2023-09-08T04:15:45;14.70;99.90
31542;DHT22;18152;49.986;8.646;2023-09-08T04:18:10;14.70;99.90
31542;DHT22;18152;49.986;8.646;2023-09-08T04:20:36;14.60;99.90
31542;DHT22;18152;49.986;8.646;2023-09-08T04:23:01;14.70;99.90
31542;DHT22;18152;49.986;8.646;2023-09-08T04:25:27;14.70;99.90
31542;DHT22;18152;49.986;8.646;2023-09-08T04:27:52;14.70;99.90
31542;DHT22;18152;49.986;8.646;2023-09-08T04:30:18;14.70;99.90
31542;DHT22;18152;49.986;8.646;2023-09-08T04:32:44;14.70;99.90
31542;DHT22;18152;49.986;8.646;2023-09-08T04:35:10;14.80;99.90
31542;DHT22;18152;49.986;8.646;2023-09-08T04:37:35;14.80;99.90
31542;DHT22;18152;49.986;8.646;2023-09-08T04:40:02;14.80;99.90
31542;DHT22;18152;49.986;8.646;2023-09-08T04:42:28;14.80;99.90
31542;DHT22;18152;49.986;8.646;2023-09-08T04:44:54;14.80;99.90
31542;DHT22;18152;49.986;8.646;2023-09-08T04:47:20;14.90;99.90
31542;DHT22;18152;49.986;8.646;2023-09-08T04:49:46;14.90;99.90
31542;DHT22;18152;49.986;8.646;2023-09-08T04:52:11;14.90;99.90
31542;DHT22;18152;49.986;8.646;2023-09-08T04:54:37;14.90;99.90
31542;DHT22;18152;49.986;8.646;2023-09-08T04:57:03;15.00;99.90
31542;DHT22;18152;49.986;8.646;2023-09-08T04:59:28;15.00;99.90
31542;DHT22;18152;49.986;8.646;2023-09-08T05:01:54;15.00;99.90
31542;DHT22;18152;49.986;8.646;2023-09-08T05:04:19;15.00;99.90
31542;DHT22;18152;49.986;8.646;2023-09-08T05:06:45;15.10;99.90
31542;DHT22;18152;49.986;8.646;2023-09-08T05:09:11;15.10;99.90
31542;DHT22;18152;49.986;8.646;2023-09-08T05:11:37;15.10;99.90
31542;DHT22;18152;49.986;8.646;2023-09-08T05:14:03;15.20;99.90
31542;DHT22;18152;49.986;8.646;2023-09-08T05:16:28;15.20;99.90
31542;DHT22;18152;49.986;8.646;2023-09-08T05:19:23;15.30;99.90
31542;DHT22;18152;49.986;8.646;2023-09-08T05:21:54;15.30;99.90
31542;DHT22;18152;49.986;8.646;2023-09-08T05:24:20;15.40;99.90
31542;DHT22;18152;49.986;8.646;2023-09-08T05:26:46;15.40;99.90
31542;DHT22;18152;49.986;8.646;2023-09-08T05:29:12;15.40;99.90
31542;DHT22;18152;49.986;8.646;2023-09-08T05:31:38;15.40;99.90
31542;DHT22;18152;49.986;8.646;2023-09-08T05:34:04;15.40;99.90
31542;DHT22;18152;49.986;8.646;2023-09-08T05:36:29;15.40;99.90
31542;DHT22;18152;49.986;8.646;2023-09-08T05:38:56;15.50;99.90
31542;DHT22;18152;49.986;8.646;2023-09-08T05:41:22;15.60;99.90
31542;DHT22;18152;49.986;8.646;2023-09-08T05:43:47;15.60;99.90
31542;DHT22;18152;49.986;8.646;2023-09-08T05:46:13;15.70;99.90
31542;DHT22;18152;49.986;8.646;2023-09-08T05:48:39;15.80;99.90
31542;DHT22;18152;49.986;8.646;2023-09-08T05:51:04;15.80;99.90
31542;DHT22;18152;49.986;8.646;2023-09-08T05:53:32;15.80;99.90
31542;DHT22;18152;49.986;8.646;2023-09-08T05:55:58;15.80;99.90
31542;DHT22;18152;49.986;8.646;2023-09-08T05:58:23;15.90;99.90
31542;DHT22;18152;49.986;8.646;2023-09-08T06:00:52;15.90;99.90
31542;DHT22;18152;49.986;8.646;2023-09-08T06:03:18;16.00;99.90
31542;DHT22;18152;49.986;8.646;2023-09-08T06:05:44;15.90;99.90
31542;DHT22;18152;49.986;8.646;2023-09-08T06:08:10;16.00;99.90
31542;DHT22;18152;49.986;8.646;2023-09-08T06:10:35;16.10;99.90
31542;DHT22;18152;49.986;8.646;2023-09-08T06:13:01;16.10;99.90
31542;DHT22;18152;49.986;8.646;2023-09-08T06:15:27;16.20;99.90
31542;DHT22;18152;49.986;8.646;2023-09-08T06:17:52;16.40;99.90
31542;DHT22;18152;49.986;8.646;2023-09-08T06:20:18;16.60;99.90
31542;DHT22;18152;49.986;8.646;2023-09-08T06:22:43;16.90;99.90
31542;DHT22;18152;49.986;8.646;2023-09-08T06:25:09;17.20;99.90
31542;DHT22;18152;49.986;8.646;2023-09-08T06:27:35;17.60;99.90
31542;DHT22;18152;49.986;8.646;2023-09-08T06:30:00;18.70;99.90
31542;DHT22;18152;49.986;8.646;2023-09-08T06:32:26;20.60;99.90
31542;DHT22;18152;49.986;8.646;2023-09-08T06:34:51;22.40;99.90
31542;DHT22;18152;49.986;8.646;2023-09-08T06:37:17;23.50;99.90
31542;DHT22;18152;49.986;8.646;2023-09-08T06:39:42;23.80;99.90
31542;DHT22;18152;49.986;8.646;2023-09-08T06:42:08;22.90;99.90
31542;DHT22;18152;49.986;8.646;2023-09-08T06:44:33;22.00;99.90
31542;DHT22;18152;49.986;8.646;2023-09-08T06:46:59;21.70;99.90
31542;DHT22;18152;49.986;8.646;2023-09-08T06:49:24;21.30;99.90
31542;DHT22;18152;49.986;8.646;2023-09-08T06:51:50;21.10;99.90
31542;DHT22;18152;49.986;8.646;2023-09-08T06:54:16;21.00;99.90
31542;DHT22;18152;49.986;8.646;2023-09-08T06:56:41;21.10;99.90
31542;DHT22;18152;49.986;8.646;2023-09-08T06:59:07;21.50;99.90
31542;DHT22;18152;49.986;8.646;2023-09-08T07:01:32;22.20;99.90
31542;DHT22;18152;49.986;8.646;2023-09-08T07:03:58;23.20;99.90
31542;DHT22;18152;49.986;8.646;2023-09-08T07:06:23;23.90;99.90
31542;DHT22;18152;49.986;8.646;2023-09-08T07:08:49;24.10;99.90
31542;DHT22;18152;49.986;8.646;2023-09-08T07:11:16;24.00;99.90
31542;DHT22;18152;49.986;8.646;2023-09-08T07:13:41;24.20;99.90
31542;DHT22;18152;49.986;8.646;2023-09-08T07:16:07;24.40;99.90
31542;DHT22;18152;49.986;8.646;2023-09-08T07:18:33;24.70;99.90
31542;DHT22;18152;49.986;8.646;2023-09-08T07:21:01;24.50;99.90
31542;DHT22;18152;49.986;8.646;2023-09-08T07:23:27;24.80;99.90
31542;DHT22;18152;49.986;8.646;2023-09-08T07:25:53;25.10;99.90
31542;DHT22;18152;49.986;8.646;2023-09-08T07:28:19;25.50;99.90
31542;DHT22;18152;49.986;8.646;2023-09-08T07:30:44;25.70;99.90
31542;DHT22;18152;49.986;8.646;2023-09-08T07:33:10;25.40;99.90
31542;DHT22;18152;49.986;8.646;2023-09-08T07:35:39;25.10;99.90
31542;DHT22;18152;49.986;8.646;2023-09-08T07:38:05;25.40;99.90
31542;DHT22;18152;49.986;8.646;2023-09-08T07:40:34;25.40;99.90
31542;DHT22;18152;49.986;8.646;2023-09-08T07:43:02;25.60;99.90
31542;DHT22;18152;49.986;8.646;2023-09-08T07:45:28;25.20;99.90
31542;DHT22;18152;49.986;8.646;2023-09-08T07:47:54;25.00;99.90
31542;DHT22;18152;49.986;8.646;2023-09-08T07:50:24;24.90;99.90
31542;DHT22;18152;49.986;8.646;2023-09-08T07:52:51;24.80;99.90
31542;DHT22;18152;49.986;8.646;2023-09-08T07:55:18;24.40;99.90
31542;DHT22;18152;49.986;8.646;2023-09-08T07:57:44;23.90;99.90
31542;DHT22;18152;49.986;8.646;2023-09-08T08:00:12;23.40;99.90
31542;DHT22;18152;49.986;8.646;2023-09-08T08:02:53;23.20;99.90
31542;DHT22;18152;49.986;8.646;2023-09-08T08:05:19;22.90;99.90
31542;DHT22;18152;49.986;8.646;2023-09-08T08:07:45;22.60;99.90
31542;DHT22;18152;49.986;8.646;2023-09-08T08:10:11;22.40;99.90
31542;DHT22;18152;49.986;8.646;2023-09-08T08:12:38;22.40;99.90
31542;DHT22;18152;49.986;8.646;2023-09-08T08:15:04;22.50;99.90
31542;DHT22;18152;49.986;8.646;2023-09-08T08:17:30;22.50;99.90
31542;DHT22;18152;49.986;8.646;2023-09-08T08:19:56;22.50;99.90
31542;DHT22;18152;49.986;8.646;2023-09-08T08:22:24;22.50;99.90
31542;DHT22;18152;49.986;8.646;2023-09-08T08:24:50;22.60;99.90
31542;DHT22;18152;49.986;8.646;2023-09-08T08:27:15;22.80;99.90
31542;DHT22;18152;49.986;8.646;2023-09-08T08:29:41;23.00;99.90
31542;DHT22;18152;49.986;8.646;2023-09-08T08:32:06;23.30;99.90
31542;DHT22;18152;49.986;8.646;2023-09-08T08:34:32;24.00;99.90
31542;DHT22;18152;49.986;8.646;2023-09-08T08:36:57;24.90;99.90
31542;DHT22;18152;49.986;8.646;2023-09-08T08:39:23;25.60;99.90
31542;DHT22;18152;49.986;8.646;2023-09-08T08:41:48;25.70;97.60
31542;DHT22;18152;49.986;8.646;2023-09-08T08:44:15;25.90;98.30
31542;DHT22;18152;49.986;8.646;2023-09-08T08:46:43;26.40;97.60
31542;DHT22;18152;49.986;8.646;2023-09-08T08:49:11;27.70;98.70
31542;DHT22;18152;49.986;8.646;2023-09-08T08:51:39;28.10;97.30
31542;DHT22;18152;49.986;8.646;2023-09-08T08:54:06;28.20;97.00
31542;DHT22;18152;49.986;8.646;2023-09-08T08:56:32;28.40;94.60
31542;DHT22;18152;49.986;8.646;2023-09-08T08:58:58;28.30;94.80
31542;DHT22;18152;49.986;8.646;2023-09-08T09:01:26;27.80;96.70
31542;DHT22;18152;49.986;8.646;2023-09-08T09:03:51;28.20;97.70
31542;DHT22;18152;49.986;8.646;2023-09-08T09:06:17;28.90;94.90
31542;DHT22;18152;49.986;8.646;2023-09-08T09:08:44;28.30;94.60
31542;DHT22;18152;49.986;8.646;2023-09-08T09:11:10;28.10;94.00
31542;DHT22;18152;49.986;8.646;2023-09-08T09:13:36;28.40;99.50
31542;DHT22;18152;49.986;8.646;2023-09-08T09:16:02;28.20;97.00
31542;DHT22;18152;49.986;8.646;2023-09-08T09:18:29;28.30;96.80
31542;DHT22;18152;49.986;8.646;2023-09-08T09:20:58;28.10;98.30
31542;DHT22;18152;49.986;8.646;2023-09-08T09:23:31;28.80;96.90
31542;DHT22;18152;49.986;8.646;2023-09-08T09:25:58;28.80;97.80
31542;DHT22;18152;49.986;8.646;2023-09-08T09:28:24;28.70;98.00
31542;DHT22;18152;49.986;8.646;2023-09-08T09:30:52;28.60;94.80
31542;DHT22;18152;49.986;8.646;2023-09-08T09:33:20;28.60;95.20
31542;DHT22;18152;49.986;8.646;2023-09-08T09:35:48;28.60;94.30
31542;DHT22;18152;49.986;8.646;2023-09-08T09:38:15;28.50;95.20
31542;DHT22;18152;49.986;8.646;2023-09-08T09:40:40;29.10;97.50
31542;DHT22;18152;49.986;8.646;2023-09-08T09:43:07;29.20;94.10
31542;DHT22;18152;49.986;8.646;2023-09-08T09:45:34;29.40;94.30
31542;DHT22;18152;49.986;8.646;2023-09-08T09:47:59;29.50;91.60
31542;DHT22;18152;49.986;8.646;2023-09-08T09:50:33;29.10;93.40
31542;DHT22;18152;49.986;8.646;2023-09-08T09:53:00;28.80;91.60
31542;DHT22;18152;49.986;8.646;2023-09-08T09:55:27;28.90;94.00
31542;DHT22;18152;49.986;8.646;2023-09-08T09:57:57;29.10;91.20
31542;DHT22;18152;49.986;8.646;2023-09-08T10:00:30;29.10;92.90
31542;DHT22;18152;49.986;8.646;2023-09-08T10:02:57;29.20;94.70
31542;DHT22;18152;49.986;8.646;2023-09-08T10:05:24;29.40;95.60
31542;DHT22;18152;49.986;8.646;2023-09-08T10:07:51;29.90;95.70
31542;DHT22;18152;49.986;8.646;2023-09-08T10:10:17;29.80;94.30
31542;DHT22;18152;49.986;8.646;2023-09-08T10:12:44;29.70;92.20
31542;DHT22;18152;49.986;8.646;2023-09-08T10:15:11;29.50;93.00
31542;DHT22;18152;49.986;8.646;2023-09-08T10:17:38;29.50;92.80
31542;DHT22;18152;49.986;8.646;2023-09-08T10:20:07;29.50;92.10
31542;DHT22;18152;49.986;8.646;2023-09-08T10:22:41;29.50;91.60
31542;DHT22;18152;49.986;8.646;2023-09-08T10:25:08;29.60;92.70
31542;DHT22;18152;49.986;8.646;2023-09-08T10:27:34;29.70;93.40
31542;DHT22;18152;49.986;8.646;2023-09-08T10:30:04;30.10;91.00
31542;DHT22;18152;49.986;8.646;2023-09-08T10:32:35;30.00;93.20
31542;DHT22;18152;49.986;8.646;2023-09-08T10:35:03;30.30;92.00
31542;DHT22;18152;49.986;8.646;2023-09-08T10:37:29;30.90;94.30
31542;DHT22;18152;49.986;8.646;2023-09-08T10:42:43;30.50;86.90
31542;DHT22;18152;49.986;8.646;2023-09-08T10:45:17;30.80;94.30
31542;DHT22;18152;49.986;8.646;2023-09-08T10:50:27;31.50;92.30
31542;DHT22;18152;49.986;8.646;2023-09-08T10:53:15;31.40;90.40
31542;DHT22;18152;49.986;8.646;2023-09-08T10:55:42;30.30;90.70
31542;DHT22;18152;49.986;8.646;2023-09-08T10:58:21;30.60;84.30
31542;DHT22;18152;49.986;8.646;2023-09-08T11:00:53;30.10;89.10
31542;DHT22;18152;49.986;8.646;2023-09-08T11:06:07;31.20;91.90
31542;DHT22;18152;49.986;8.646;2023-09-08T11:08:33;31.10;84.20
31542;DHT22;18152;49.986;8.646;2023-09-08T11:11:01;30.20;84.40
31542;DHT22;18152;49.986;8.646;2023-09-08T11:13:27;31.00;90.80
31542;DHT22;18152;49.986;8.646;2023-09-08T11:15:56;30.30;83.20
31542;DHT22;18152;49.986;8.646;2023-09-08T11:18:28;30.40;90.70
31542;DHT22;18152;49.986;8.646;2023-09-08T11:20:54;30.40;80.20
31542;DHT22;18152;49.986;8.646;2023-09-08T11:23:21;30.00;81.20
31542;DHT22;18152;49.986;8.646;2023-09-08T11:25:47;30.20;80.30
31542;DHT22;18152;49.986;8.646;2023-09-08T11:28:13;29.90;82.80
31542;DHT22;18152;49.986;8.646;2023-09-08T11:30:41;30.20;85.80
31542;DHT22;18152;49.986;8.646;2023-09-08T11:33:17;30.40;82.30
31542;DHT22;18152;49.986;8.646;2023-09-08T11:35:46;31.00;83.70
31542;DHT22;18152;49.986;8.646;2023-09-08T11:38:12;30.80;79.40
31542;DHT22;18152;49.986;8.646;2023-09-08T11:40:38;30.30;77.40
31542;DHT22;18152;49.986;8.646;2023-09-08T11:43:05;29.90;83.10
31542;DHT22;18152;49.986;8.646;2023-09-08T11:45:34;30.20;81.30
31542;DHT22;18152;49.986;8.646;2023-09-08T11:48:00;30.20;79.50
31542;DHT22;18152;49.986;8.646;2023-09-08T11:50:26;30.20;83.50
31542;DHT22;18152;49.986;8.646;2023-09-08T11:52:53;30.30;79.30
31542;DHT22;18152;49.986;8.646;2023-09-08T11:55:20;30.90;87.10
31542;DHT22;18152;49.986;8.646;2023-09-08T11:57:48;31.70;85.40
31542;DHT22;18152;49.986;8.646;2023-09-08T12:00:17;31.20;76.50
31542;DHT22;18152;49.986;8.646;2023-09-08T12:02:44;31.40;81.20
31542;DHT22;18152;49.986;8.646;2023-09-08T12:07:45;31.20;78.50
31542;DHT22;18152;49.986;8.646;2023-09-08T12:10:11;31.80;83.90
31542;DHT22;18152;49.986;8.646;2023-09-08T12:12:49;31.50;76.70
31542;DHT22;18152;49.986;8.646;2023-09-08T12:18:01;30.40;77.70
31542;DHT22;18152;49.986;8.646;2023-09-08T12:20:27;31.00;85.80
31542;DHT22;18152;49.986;8.646;2023-09-08T12:22:53;30.80;77.50
31542;DHT22;18152;49.986;8.646;2023-09-08T12:25:19;31.50;89.00
31542;DHT22;18152;49.986;8.646;2023-09-08T12:27:45;31.20;74.40
31542;DHT22;18152;49.986;8.646;2023-09-08T12:30:19;30.60;75.30
31542;DHT22;18152;49.986;8.646;2023-09-08T12:32:47;30.00;75.40
31542;DHT22;18152;49.986;8.646;2023-09-08T12:35:22;30.20;80.40
31542;DHT22;18152;49.986;8.646;2023-09-08T12:37:52;30.60;88.60
31542;DHT22;18152;49.986;8.646;2023-09-08T12:40:18;30.90;80.70
31542;DHT22;18152;49.986;8.646;2023-09-08T12:42:43;30.70;76.40
31542;DHT22;18152;49.986;8.646;2023-09-08T12:45:09;30.40;80.50
31542;DHT22;18152;49.986;8.646;2023-09-08T12:47:35;30.80;78.60
31542;DHT22;18152;49.986;8.646;2023-09-08T12:50:02;30.80;84.30
31542;DHT22;18152;49.986;8.646;2023-09-08T12:52:28;31.30;85.90
31542;DHT22;18152;49.986;8.646;2023-09-08T12:54:54;31.50;76.50
31542;DHT22;18152;49.986;8.646;2023-09-08T12:57:20;31.10;76.30
31542;DHT22;18152;49.986;8.646;2023-09-08T12:59:45;31.40;78.70
31542;DHT22;18152;49.986;8.646;2023-09-08T13:02:11;31.20;74.60
31542;DHT22;18152;49.986;8.646;2023-09-08T13:04:37;30.40;75.10
31542;DHT22;18152;49.986;8.646;2023-09-08T13:07:03;30.00;78.50
31542;DHT22;18152;49.986;8.646;2023-09-08T13:09:29;29.60;78.60
31542;DHT22;18152;49.986;8.646;2023-09-08T13:11:54;29.40;76.80
31542;DHT22;18152;49.986;8.646;2023-09-08T13:14:20;29.60;83.80
31542;DHT22;18152;49.986;8.646;2023-09-08T13:16:45;30.30;89.60
31542;DHT22;18152;49.986;8.646;2023-09-08T13:19:11;30.30;77.60
31542;DHT22;18152;49.986;8.646;2023-09-08T13:21:37;29.90;76.90
31542;DHT22;18152;49.986;8.646;2023-09-08T13:24:06;29.60;77.90
31542;DHT22;18152;49.986;8.646;2023-09-08T13:26:32;30.00;77.10
31542;DHT22;18152;49.986;8.646;2023-09-08T13:28:58;29.60;76.00
31542;DHT22;18152;49.986;8.646;2023-09-08T13:31:23;29.50;79.30
31542;DHT22;18152;49.986;8.646;2023-09-08T13:33:49;29.60;76.50
31542;DHT22;18152;49.986;8.646;2023-09-08T13:36:14;30.10;84.70
31542;DHT22;18152;49.986;8.646;2023-09-08T13:38:40;30.60;81.90
31542;DHT22;18152;49.986;8.646;2023-09-08T13:41:05;30.60;76.30
31542;DHT22;18152;49.986;8.646;2023-09-08T13:43:31;30.50;79.20
31542;DHT22;18152;49.986;8.646;2023-09-08T13:45:56;30.00;76.50
31542;DHT22;18152;49.986;8.646;2023-09-08T13:48:22;29.60;77.70
31542;DHT22;18152;49.986;8.646;2023-09-08T13:50:47;29.40;75.90
31542;DHT22;18152;49.986;8.646;2023-09-08T13:53:13;29.40;77.40
31542;DHT22;18152;49.986;8.646;2023-09-08T13:55:39;29.30;73.70
31542;DHT22;18152;49.986;8.646;2023-09-08T13:58:04;29.20;78.40
31542;DHT22;18152;49.986;8.646;2023-09-08T14:00:30;29.40;74.20
31542;DHT22;18152;49.986;8.646;2023-09-08T14:02:55;29.40;80.30
31542;DHT22;18152;49.986;8.646;2023-09-08T14:05:21;29.30;77.10
31542;DHT22;18152;49.986;8.646;2023-09-08T14:07:47;29.30;84.00
31542;DHT22;18152;49.986;8.646;2023-09-08T14:10:12;29.40;80.70
31542;DHT22;18152;49.986;8.646;2023-09-08T14:12:38;29.40;77.10
31542;DHT22;18152;49.986;8.646;2023-09-08T14:15:04;29.30;76.60
31542;DHT22;18152;49.986;8.646;2023-09-08T14:17:30;29.00;76.30
31542;DHT22;18152;49.986;8.646;2023-09-08T14:19:55;28.90;75.40
31542;DHT22;18152;49.986;8.646;2023-09-08T14:22:21;28.80;75.90
31542;DHT22;18152;49.986;8.646;2023-09-08T14:24:46;28.90;78.10
31542;DHT22;18152;49.986;8.646;2023-09-08T14:27:12;28.90;76.50
31542;DHT22;18152;49.986;8.646;2023-09-08T14:29:38;28.90;76.60
31542;DHT22;18152;49.986;8.646;2023-09-08T14:32:03;28.90;77.20
31542;DHT22;18152;49.986;8.646;2023-09-08T14:34:29;28.80;76.20
31542;DHT22;18152;49.986;8.646;2023-09-08T14:36:55;28.70;78.20
31542;DHT22;18152;49.986;8.646;2023-09-08T14:39:20;28.70;77.80
31542;DHT22;18152;49.986;8.646;2023-09-08T14:41:46;28.60;78.00
31542;DHT22;18152;49.986;8.646;2023-09-08T14:44:12;28.70;76.90
31542;DHT22;18152;49.986;8.646;2023-09-08T14:46:37;28.70;78.40
31542;DHT22;18152;49.986;8.646;2023-09-08T14:49:03;28.70;77.40
31542;DHT22;18152;49.986;8.646;2023-09-08T14:51:29;28.60;75.90
31542;DHT22;18152;49.986;8.646;2023-09-08T14:53:54;28.50;76.10
31542;DHT22;18152;49.986;8.646;2023-09-08T14:56:20;28.40;78.60
31542;DHT22;18152;49.986;8.646;2023-09-08T14:58:45;28.50;89.60
31542;DHT22;18152;49.986;8.646;2023-09-08T15:01:11;28.40;77.50
31542;DHT22;18152;49.986;8.646;2023-09-08T15:03:39;28.40;76.30
31542;DHT22;18152;49.986;8.646;2023-09-08T15:06:05;28.40;80.00
31542;DHT22;18152;49.986;8.646;2023-09-08T15:08:31;28.40;75.90
31542;DHT22;18152;49.986;8.646;2023-09-08T15:10:57;28.20;79.60
31542;DHT22;18152;49.986;8.646;2023-09-08T15:13:22;28.20;77.60
31542;DHT22;18152;49.986;8.646;2023-09-08T15:15:48;28.10;76.70
31542;DHT22;18152;49.986;8.646;2023-09-08T15:18:14;28.10;76.70
31542;DHT22;18152;49.986;8.646;2023-09-08T15:20:40;28.10;79.40
31542;DHT22;18152;49.986;8.646;2023-09-08T15:23:06;28.10;78.20
31542;DHT22;18152;49.986;8.646;2023-09-08T15:25:32;28.00;78.20
31542;DHT22;18152;49.986;8.646;2023-09-08T15:27:57;28.00;77.30
31542;DHT22;18152;49.986;8.646;2023-09-08T15:30:23;28.00;76.90
31542;DHT22;18152;49.986;8.646;2023-09-08T15:32:49;28.10;79.90
31542;DHT22;18152;49.986;8.646;2023-09-08T15:35:14;28.00;79.10
31542;DHT22;18152;49.986;8.646;2023-09-08T15:37:40;28.00;78.00
31542;DHT22;18152;49.986;8.646;2023-09-08T15:40:06;27.90;76.70
31542;DHT22;18152;49.986;8.646;2023-09-08T15:42:39;27.80;76.20